Pretty Lady — 9HVY9 — position and weather

sailwx.info

Track history (hours):
 
Tides and Currents Weather Stations Pressure Air Temp Water Temp Dewpoint Dewpoint Depression Visibility Wind Speed Wind Dir Waves Ship Positions

Pretty Lady

Last reported at 2014-Jul-23 16:18 UTC. Time now 2014-Jul-23 18:03 UTC.
Position N 44°58' W 006°17'.

Length 189 m; draft 10.2 m.

Type: Cargo ship. MMSI: 249617000.

Date/timePositionNaut miles runAvg speedWind from/ knotsBaromVisibWave heightAir tempDewpointWater temp
2014-Jul-23 16:18N 44°58' W 006°17'1013.7
2014-Jul-23 15:33N 45°02' W 006°03'1413.9
2014-Jul-23 14:33N 45°06' W 005°45'1414.2
2014-Jul-23 13:33N 45°11' W 005°26'1714.1
2014-Jul-23 12:23N 45°17' W 005°04'13613.9
2014-Jul-23 02:33N 46°05' W 002°01'1413.6
2014-Jul-23 01:33N 46°08' W 001°42'1413.2
2014-Jul-23 00:32N 46°06' W 001°23'  
2014-Jul-18 11:28N 46°09' W 001°15'4 0.7
2014-Jul-18 06:25N 46°05' W 001°15'0 0.0
2014-Jul-18 02:27N 46°05' W 001°15'0 0.2
2014-Jul-18 01:32N 46°05' W 001°15'0 0.1
2014-Jul-18 00:33N 46°05' W 001°15'0 0.0
2014-Jul-17 23:33N 46°05' W 001°15'0 0.1
2014-Jul-17 22:33N 46°05' W 001°15'0 0.1
2014-Jul-17 21:33N 46°05' W 001°15'0 0.0
2014-Jul-17 20:27N 46°05' W 001°15'0 0.0
2014-Jul-17 19:33N 46°05' W 001°15'0 0.0
2014-Jul-17 18:15N 46°05' W 001°15'0 0.0
2014-Jul-17 17:33N 46°05' W 001°15'0 0.0
2014-Jul-17 16:33N 46°05' W 001°15'0 0.0
2014-Jul-17 08:26N 46°05' W 001°15'0 0.1
2014-Jul-17 07:33N 46°05' W 001°15'0 0.0
2014-Jul-17 06:27N 46°05' W 001°15'0 0.2
2014-Jul-17 05:32N 46°05' W 001°15'0 0.0
2014-Jul-17 04:33N 46°05' W 001°15'0 0.1
2014-Jul-17 03:24N 46°05' W 001°15'0 0.0
2014-Jul-17 02:33N 46°05' W 001°15'0 0.2
2014-Jul-17 01:33N 46°05' W 001°15'0 0.0
2014-Jul-17 00:32N 46°05' W 001°15'0 0.0
2014-Jul-16 22:33N 46°05' W 001°15'0 0.0
2014-Jul-16 21:33N 46°05' W 001°15'0 0.0
2014-Jul-16 20:32N 46°05' W 001°15'0 0.0
2014-Jul-16 05:03N 46°05' W 001°15'0 0.0
2014-Jul-16 02:27N 46°05' W 001°15'0 0.1
2014-Jul-16 00:12N 46°05' W 001°15'0 0.0
2014-Jul-15 17:15N 46°05' W 001°15'0 0.0
2014-Jul-15 15:33N 46°05' W 001°15'0 0.0
2014-Jul-15 10:06N 46°05' W 001°15'0 0.0
2014-Jul-15 09:32N 46°05' W 001°15'78 3.2
2014-Jul-14 09:32N 46°43' W 002°54'5 5.0
2014-Jul-14 08:26N 46°46' W 003°01'7 5.7
2014-Jul-14 07:12N 46°50' W 003°09'2413.2
2014-Jul-14 05:23N 47°04' W 003°38'1112.2
2014-Jul-14 04:30N 47°10' W 003°51'1212.2
2014-Jul-14 03:31N 47°17' W 004°05'3712.1
2014-Jul-14 00:27N 47°38' W 004°50'1011.6
2014-Jul-13 23:33N 47°43' W 005°03'  
Track history (hours):
 
Tides and Currents Weather Stations Pressure Air Temp Water Temp Dewpoint Dewpoint Depression Visibility Wind Speed Wind Dir Waves Ship Positions

Pretty Lady

Last reported at 2014-Jul-23 16:18 UTC. Time now 2014-Jul-23 18:03 UTC.
Position N 44°58' W 006°17'.

Length 189 m; draft 10.2 m.

Type: Cargo ship. MMSI: 249617000.

Date/timePositionNaut miles runAvg speedWind from/ knotsBaromVisibWave heightAir tempDewpointWater temp
2014-Jul-23 16:18N 44°58' W 006°17'1013.7
2014-Jul-23 15:33N 45°02' W 006°03'1413.9
2014-Jul-23 14:33N 45°06' W 005°45'1414.2
2014-Jul-23 13:33N 45°11' W 005°26'1714.1
2014-Jul-23 12:23N 45°17' W 005°04'13613.9
2014-Jul-23 02:33N 46°05' W 002°01'1413.6
2014-Jul-23 01:33N 46°08' W 001°42'1413.2
2014-Jul-23 00:32N 46°06' W 001°23'  
2014-Jul-18 11:28N 46°09' W 001°15'4 0.7
2014-Jul-18 06:25N 46°05' W 001°15'0 0.0
2014-Jul-18 02:27N 46°05' W 001°15'0 0.2
2014-Jul-18 01:32N 46°05' W 001°15'0 0.1
2014-Jul-18 00:33N 46°05' W 001°15'0 0.0
2014-Jul-17 23:33N 46°05' W 001°15'0 0.1
2014-Jul-17 22:33N 46°05' W 001°15'0 0.1
2014-Jul-17 21:33N 46°05' W 001°15'0 0.0
2014-Jul-17 20:27N 46°05' W 001°15'0 0.0
2014-Jul-17 19:33N 46°05' W 001°15'0 0.0
2014-Jul-17 18:15N 46°05' W 001°15'0 0.0
2014-Jul-17 17:33N 46°05' W 001°15'0 0.0
2014-Jul-17 16:33N 46°05' W 001°15'0 0.0
2014-Jul-17 08:26N 46°05' W 001°15'0 0.1
2014-Jul-17 07:33N 46°05' W 001°15'0 0.0
2014-Jul-17 06:27N 46°05' W 001°15'0 0.2
2014-Jul-17 05:32N 46°05' W 001°15'0 0.0
2014-Jul-17 04:33N 46°05' W 001°15'0 0.1
2014-Jul-17 03:24N 46°05' W 001°15'0 0.0
2014-Jul-17 02:33N 46°05' W 001°15'0 0.2
2014-Jul-17 01:33N 46°05' W 001°15'0 0.0
2014-Jul-17 00:32N 46°05' W 001°15'0 0.0
2014-Jul-16 22:33N 46°05' W 001°15'0 0.0
2014-Jul-16 21:33N 46°05' W 001°15'0 0.0
2014-Jul-16 20:32N 46°05' W 001°15'0 0.0
2014-Jul-16 05:03N 46°05' W 001°15'0 0.0
2014-Jul-16 02:27N 46°05' W 001°15'0 0.1
2014-Jul-16 00:12N 46°05' W 001°15'0 0.0
2014-Jul-15 17:15N 46°05' W 001°15'0 0.0
2014-Jul-15 15:33N 46°05' W 001°15'0 0.0
2014-Jul-15 10:06N 46°05' W 001°15'0 0.0
2014-Jul-15 09:32N 46°05' W 001°15'78 3.2
2014-Jul-14 09:32N 46°43' W 002°54'5 5.0
2014-Jul-14 08:26N 46°46' W 003°01'7 5.7
2014-Jul-14 07:12N 46°50' W 003°09'2413.2
2014-Jul-14 05:23N 47°04' W 003°38'1112.2
2014-Jul-14 04:30N 47°10' W 003°51'1212.2
2014-Jul-14 03:31N 47°17' W 004°05'3712.1
2014-Jul-14 00:27N 47°38' W 004°50'1011.6
2014-Jul-13 23:33N 47°43' W 005°03'  

Dump ship's entire track history